Terminal Aerodrome Forecast
Issued by NWS Tampa Bay Area, FL

Current Version | Previous Version | Text Only | Print | Product List | Glossary On
Versions: 1 2 3 4 5 6 7 8 9 10 11 12 13
000
FTUS42 KTBW 260520
TAFSRQ
TAF
KSRQ 260520Z 2606/2706 09008KT P6SM SKC
     FM261700 08010G15KT P6SM FEW050
     FM262100 03010G15KT P6SM SCT060
     FM270200 08010KT P6SM FEW060=

USA.gov is the U.S. government's official web portal to all federal, state and local government web resources and services.